Time;durP1;ratioP1;P1;durP2;ratioP2;P2;SDS_P1;SDS_P2;PMS_P1;PMS_P2;Temp;Humidity;BMP_temperature;BMP_pressure;BME280_temperature;BME280_humidity;BME280_pressure;Samples;Min_cycle;Max_cycle;Signal;HPM_P1;HPM_P2
2021/07/27 00:00:48;;;;;;;7.33;4.70;;;;;;;19.53;72.17;96567.53;5087498;28;20438;-70
2021/07/27 00:03:14;;;;;;;6.23;4.50;;;;;;;19.90;72.14;96562.16;5092051;28;20227;-70
2021/07/27 00:05:40;;;;;;;5.90;4.67;;;;;;;19.71;71.00;96564.03;5092567;28;20201;-71
2021/07/27 00:08:07;;;;;;;5.20;4.70;;;;;;;19.89;70.14;96561.31;5092493;28;20532;-72
2021/07/27 00:10:33;;;;;;;12.03;4.50;;;;;;;19.59;71.11;96556.81;5092153;28;20198;-70
2021/07/27 00:12:58;;;;;;;4.97;4.53;;;;;;;19.80;70.03;96555.47;5092263;28;20426;-70
2021/07/27 00:15:24;;;;;;;5.80;5.10;;;;;;;19.92;70.50;96549.41;5091595;28;20763;-69
2021/07/27 00:17:50;;;;;;;7.53;5.00;;;;;;;20.08;69.41;96547.97;5092353;28;20174;-71
2021/07/27 00:20:15;;;;;;;11.93;4.27;;;;;;;20.16;68.32;96549.47;5094426;28;20208;-71
2021/07/27 00:22:41;;;;;;;12.60;4.30;;;;;;;19.82;69.35;96549.97;5092119;28;20239;-70
2021/07/27 00:25:08;;;;;;;7.93;5.03;;;;;;;19.70;69.74;96552.56;5091793;28;20318;-70
2021/07/27 00:27:34;;;;;;;5.23;4.53;;;;;;;19.41;70.69;96549.69;5093035;28;20431;-71
2021/07/27 00:30:03;;;;;;;5.70;4.20;;;;;;;19.27;71.10;96549.06;5089174;28;20417;-70
2021/07/27 00:32:29;;;;;;;6.90;4.83;;;;;;;19.75;69.22;96544.75;5083751;28;20769;-71
2021/07/27 00:34:55;;;;;;;4.57;3.90;;;;;;;19.88;69.40;96541.09;5091408;28;20412;-70
2021/07/27 00:37:27;;;;;;;5.67;4.50;;;;;;;20.44;68.96;96542.63;5091409;28;20477;-70
2021/07/27 00:39:53;;;;;;;3.93;3.53;;;;;;;20.89;66.36;96535.91;5090354;28;20187;-70
2021/07/27 00:42:19;;;;;;;3.90;3.50;;;;;;;21.95;61.37;96537.38;5091490;28;20515;-70
2021/07/27 00:44:44;;;;;;;4.80;3.50;;;;;;;22.40;60.22;96528.47;5091065;28;20190;-70
2021/07/27 00:47:11;;;;;;;4.40;4.00;;;;;;;22.05;59.65;96529.53;5091590;28;20229;-70
2021/07/27 00:49:37;;;;;;;4.33;3.60;;;;;;;21.82;62.26;96529.69;5091734;28;20876;-70
2021/07/27 00:52:03;;;;;;;6.20;3.93;;;;;;;21.64;60.80;96526.19;5092378;28;20197;-70
2021/07/27 00:54:29;;;;;;;4.63;3.87;;;;;;;21.80;62.29;96524.59;5091173;28;20416;-71
2021/07/27 00:56:55;;;;;;;5.97;3.90;;;;;;;22.55;59.87;96527.09;5092095;28;20473;-71
2021/07/27 00:59:21;;;;;;;4.13;3.63;;;;;;;23.16;56.85;96524.41;5092139;28;20308;-71
2021/07/27 01:01:47;;;;;;;5.90;3.37;;;;;;;23.37;56.08;96519.31;5087496;28;20298;-70
2021/07/27 01:04:12;;;;;;;4.73;3.30;;;;;;;23.18;56.10;96516.13;5091356;28;20455;-71
2021/07/27 01:06:38;;;;;;;4.10;3.10;;;;;;;23.07;56.99;96520.53;5093893;28;20188;-69
2021/07/27 01:09:04;;;;;;;8.53;3.80;;;;;;;23.40;55.97;96524.16;5091259;28;20774;-70
2021/07/27 01:11:29;;;;;;;4.30;3.30;;;;;;;23.27;55.90;96519.22;5090961;28;20201;-70
2021/07/27 01:13:55;;;;;;;3.97;3.63;;;;;;;23.04;56.61;96518.41;5090442;28;20539;-71
2021/07/27 01:16:25;;;;;;;4.80;3.87;;;;;;;22.20;57.11;96523.63;5091108;28;20186;-70
2021/07/27 01:38:39;;;;;;;11.00;4.13;;;;;;;20.68;63.37;96530.94;5090427;28;20451;-71
2021/07/27 01:42:04;;;;;;;6.27;4.20;;;;;;;21.26;63.00;96536.41;5090210;28;20439;-71
2021/07/27 01:43:48;;;;;;;5.60;3.70;;;;;;;22.12;59.78;96540.06;5087699;28;20459;-68
2021/07/27 01:46:15;;;;;;;5.43;3.33;;;;;;;22.39;58.91;96547.41;5090733;28;20434;-70
2021/07/27 01:48:41;;;;;;;4.60;3.87;;;;;;;22.59;57.94;96556.78;5090673;28;20458;-71
2021/07/27 01:51:07;;;;;;;4.20;3.53;;;;;;;22.66;58.17;96558.22;5090460;28;20455;-71
2021/07/27 01:53:43;;;;;;;8.50;3.77;;;;;;;22.63;58.09;96549.91;5090268;28;20431;-70
2021/07/27 01:56:09;;;;;;;4.27;3.87;;;;;;;22.70;57.31;96558.53;5090615;28;20268;-72
2021/07/27 01:58:35;;;;;;;9.73;4.20;;;;;;;22.67;57.40;96548.38;5090754;28;20653;-70
2021/07/27 02:01:00;;;;;;;8.03;3.70;;;;;;;22.42;58.39;96540.78;5087931;28;20202;-70
2021/07/27 02:03:26;;;;;;;10.00;4.27;;;;;;;22.47;57.76;96551.56;5094310;28;20177;-70
2021/07/27 02:05:51;;;;;;;7.10;3.70;;;;;;;22.72;57.45;96552.97;5094423;28;20649;-71
2021/07/27 02:08:17;;;;;;;8.20;3.97;;;;;;;22.85;56.69;96556.09;5094510;28;20238;-70
2021/07/27 02:10:47;;;;;;;5.03;3.60;;;;;;;22.91;56.49;96554.28;5094708;28;20675;-69
2021/07/27 02:13:25;;;;;;;6.37;4.23;;;;;;;22.66;56.26;96557.44;5094192;28;20185;-72
2021/07/27 02:15:51;;;;;;;6.53;4.60;;;;;;;21.73;58.65;96547.94;5094271;28;20919;-70
2021/07/27 02:18:16;;;;;;;9.87;4.53;;;;;;;21.28;60.27;96552.97;5094035;28;20444;-70
2021/07/27 02:20:45;;;;;;;5.20;4.70;;;;;;;20.71;63.68;96557.09;5093982;28;20316;-69
2021/07/27 02:23:10;;;;;;;8.00;5.00;;;;;;;20.94;63.65;96555.47;5099103;28;20193;-70
2021/07/27 02:25:36;;;;;;;4.80;4.27;;;;;;;20.93;63.61;96553.06;5096683;28;20500;-70
2021/07/27 02:28:02;;;;;;;4.50;3.97;;;;;;;21.49;61.67;96561.34;5094141;28;20182;-70
2021/07/27 02:30:30;;;;;;;6.43;4.70;;;;;;;21.07;61.47;96556.25;5089332;28;20200;-69
2021/07/27 02:32:56;;;;;;;5.33;4.80;;;;;;;20.45;63.52;96557.56;5093911;28;20181;-71
2021/07/27 02:35:22;;;;;;;6.17;4.73;;;;;;;19.85;66.33;96561.97;5094154;28;20538;-70
2021/07/27 02:37:48;;;;;;;5.63;4.97;;;;;;;20.06;68.75;96553.50;5093978;28;20205;-70
2021/07/27 02:40:14;;;;;;;10.10;4.90;;;;;;;21.02;63.69;96546.31;5094166;28;20794;-69
2021/07/27 02:42:39;;;;;;;8.07;5.13;;;;;;;21.73;60.99;96546.09;5094234;28;20555;-70
2021/07/27 02:45:12;;;;;;;9.00;4.50;;;;;;;22.28;57.45;96537.63;5093708;28;20197;-68
2021/07/27 02:47:42;;;;;;;14.00;6.33;;;;;;;21.23;61.23;96547.53;5093775;28;20182;-71
2021/07/27 02:50:10;;;;;;;18.13;6.90;;;;;;;20.32;63.59;96542.66;5094180;28;20906;-70
2021/07/27 02:52:38;;;;;;;8.63;5.70;;;;;;;19.78;65.90;96541.59;5094441;28;20424;-70
2021/07/27 02:55:04;;;;;;;7.03;5.37;;;;;;;19.38;67.67;96544.00;5093458;28;20501;-69
2021/07/27 02:57:30;;;;;;;6.97;5.47;;;;;;;19.40;67.74;96545.44;5099443;28;20869;-70
2021/07/27 02:59:55;;;;;;;8.33;5.57;;;;;;;19.68;66.80;96544.00;5089411;28;20559;-70
2021/07/27 03:02:28;;;;;;;11.07;5.57;;;;;;;19.71;67.58;96542.75;5092881;28;20209;-69
2021/07/27 03:04:54;;;;;;;8.90;6.20;;;;;;;19.59;70.28;96537.41;5093434;28;20206;-69
2021/07/27 03:07:20;;;;;;;10.70;5.53;;;;;;;20.76;65.15;96537.00;5093650;28;20449;-69
2021/07/27 03:10:28;;;;;;;16.10;5.87;;;;;;;21.00;61.91;96543.91;5087076;28;20178;-70
2021/07/27 03:12:34;;;;;;;10.03;5.30;;;;;;;21.39;60.82;96545.97;5087536;28;20482;-69
2021/07/27 03:15:00;;;;;;;6.80;4.40;;;;;;;21.86;60.04;96549.50;5093782;28;20464;-70
2021/07/27 03:17:26;;;;;;;4.70;4.30;;;;;;;22.53;57.80;96553.22;5093666;28;20185;-69
2021/07/27 03:19:52;;;;;;;7.70;4.77;;;;;;;22.88;56.42;96553.97;5081166;28;20431;-71
2021/07/27 03:22:19;;;;;;;6.13;4.47;;;;;;;23.16;55.60;96561.81;5092258;28;20481;-69
2021/07/27 03:24:45;;;;;;;8.97;5.00;;;;;;;23.09;55.87;96557.72;5093443;28;20220;-69
2021/07/27 03:27:13;;;;;;;5.40;4.20;;;;;;;23.22;55.33;96554.72;5102521;28;20440;-69
2021/07/27 03:29:38;;;;;;;7.40;4.47;;;;;;;23.10;55.98;96557.47;5093239;28;20182;-70
2021/07/27 03:32:04;;;;;;;4.87;4.07;;;;;;;23.06;55.76;96556.34;5093005;28;20958;-71
2021/07/27 03:34:30;;;;;;;9.23;4.67;;;;;;;22.92;56.37;96553.22;5092743;28;20185;-70
2021/07/27 03:36:55;;;;;;;6.17;4.43;;;;;;;22.77;56.97;96558.38;5093208;28;20235;-70
2021/07/27 03:39:21;;;;;;;9.50;5.40;;;;;;;22.92;56.09;96552.44;5092732;28;20205;-70
2021/07/27 03:41:46;;;;;;;5.20;4.70;;;;;;;22.84;56.60;96554.47;5093234;28;20220;-70
2021/07/27 03:44:15;;;;;;;6.47;5.00;;;;;;;22.94;56.12;96552.97;5092946;28;20244;-69
2021/07/27 03:46:43;;;;;;;9.63;5.30;;;;;;;23.05;55.41;96562.75;5093011;28;20185;-72
2021/07/27 03:49:09;;;;;;;9.80;5.40;;;;;;;22.78;55.64;96565.31;5090009;28;20832;-71
2021/07/27 03:51:34;;;;;;;10.83;6.20;;;;;;;22.32;58.04;96563.59;5093839;28;20463;-70
2021/07/27 03:54:00;;;;;;;9.07;5.63;;;;;;;22.40;57.90;96557.03;5092643;28;20182;-70
2021/07/27 03:56:26;;;;;;;6.10;4.70;;;;;;;22.73;56.93;96560.72;5092684;28;20193;-71
2021/07/27 03:58:51;;;;;;;6.23;5.03;;;;;;;22.84;55.89;96553.66;5092563;28;20186;-69
2021/07/27 04:01:17;;;;;;;14.00;5.03;;;;;;;22.31;58.58;96558.47;5092576;28;20205;-70
2021/07/27 04:03:42;;;;;;;6.93;4.97;;;;;;;22.75;56.89;96560.47;5092352;28;20181;-71
2021/07/27 04:06:08;;;;;;;5.97;4.80;;;;;;;23.00;55.42;96550.13;5092252;28;20189;-70
2021/07/27 04:08:34;;;;;;;11.13;4.70;;;;;;;22.83;56.24;96558.19;5092749;28;20181;-70
2021/07/27 04:11:01;;;;;;;6.27;4.80;;;;;;;22.83;55.87;96552.84;5092374;28;20645;-69
2021/07/27 04:13:29;;;;;;;4.50;4.10;;;;;;;22.79;56.05;96551.75;5083982;28;20177;-69
2021/07/27 04:15:55;;;;;;;8.13;4.80;;;;;;;22.95;55.57;96554.59;5090883;28;20518;-70
2021/07/27 04:18:21;;;;;;;6.90;5.60;;;;;;;23.04;54.74;96542.44;5092027;28;20605;-71
2021/07/27 04:20:46;;;;;;;7.43;4.53;;;;;;;23.05;54.06;96548.56;5094031;28;20668;-70
2021/07/27 04:23:14;;;;;;;7.80;4.37;;;;;;;22.98;55.11;96544.25;5093458;28;20272;-69
2021/07/27 04:25:39;;;;;;;9.30;4.60;;;;;;;23.09;54.97;96544.38;5092383;28;20202;-71
2021/07/27 04:28:05;;;;;;;5.27;4.60;;;;;;;23.12;54.84;96538.53;5095510;28;21009;-71
2021/07/27 04:30:33;;;;;;;6.20;4.77;;;;;;;22.88;55.59;96528.06;5092039;28;20204;-70
2021/07/27 04:32:58;;;;;;;6.27;5.20;;;;;;;22.95;55.21;96530.56;5091939;28;20214;-71
2021/07/27 04:35:24;;;;;;;4.73;4.33;;;;;;;23.08;55.13;96538.19;5091226;28;20955;-71
2021/07/27 04:37:51;;;;;;;7.30;4.00;;;;;;;23.38;54.25;96541.50;5092218;28;20197;-71
2021/07/27 04:40:16;;;;;;;4.87;4.30;;;;;;;23.47;53.78;96540.81;5091604;28;20189;-71
2021/07/27 04:42:42;;;;;;;6.87;4.57;;;;;;;23.35;54.00;96539.34;5092108;28;20499;-69
2021/07/27 04:45:08;;;;;;;8.50;5.20;;;;;;;22.83;55.54;96547.50;5091266;28;20308;-72
2021/07/27 04:47:33;;;;;;;9.10;4.50;;;;;;;22.59;56.45;96546.09;5091610;28;20665;-71
2021/07/27 04:49:59;;;;;;;11.00;5.20;;;;;;;22.45;57.42;96546.44;5088584;28;20190;-70
2021/07/27 04:52:24;;;;;;;5.33;4.83;;;;;;;22.29;57.48;96540.03;5091301;28;20549;-70
2021/07/27 04:54:55;;;;;;;9.30;5.60;;;;;;;22.04;58.20;96540.47;5093868;28;20261;-71
2021/07/27 04:57:20;;;;;;;10.30;5.50;;;;;;;22.05;58.84;96539.41;5091517;28;20190;-72
2021/07/27 04:59:46;;;;;;;6.73;5.10;;;;;;;22.17;58.71;96537.47;5091361;28;20424;-71
2021/07/27 05:02:11;;;;;;;5.20;4.70;;;;;;;22.61;57.30;96541.34;5091307;28;20202;-70
2021/07/27 05:04:37;;;;;;;5.20;4.70;;;;;;;22.89;55.76;96540.38;5091674;28;20205;-70
2021/07/27 05:07:03;;;;;;;5.10;4.70;;;;;;;22.89;56.50;96539.56;5091619;28;20277;-70
2021/07/27 05:09:29;;;;;;;7.10;5.03;;;;;;;22.81;56.15;96528.25;5091591;28;20718;-71
2021/07/27 05:11:58;;;;;;;5.40;4.93;;;;;;;22.55;57.26;96535.94;5091509;28;20448;-70
2021/07/27 05:14:24;;;;;;;6.10;5.07;;;;;;;22.26;57.40;96535.19;5091272;28;20177;-70
2021/07/27 05:16:50;;;;;;;9.93;5.00;;;;;;;22.35;57.70;96535.59;5090979;28;20825;-68
2021/07/27 05:19:15;;;;;;;7.77;5.00;;;;;;;22.66;57.73;96528.84;5086899;28;20431;-72
2021/07/27 05:21:41;;;;;;;8.20;5.07;;;;;;;23.06;55.47;96528.81;5096680;28;20201;-71
2021/07/27 05:24:06;;;;;;;7.33;4.70;;;;;;;23.06;56.59;96529.63;5093261;28;20293;-70
2021/07/27 05:26:32;;;;;;;6.77;4.37;;;;;;;23.27;56.34;96529.91;5089507;28;20177;-71
2021/07/27 05:28:58;;;;;;;8.80;4.80;;;;;;;23.23;55.18;96529.59;5091742;28;20239;-70
2021/07/27 05:31:26;;;;;;;4.90;4.33;;;;;;;23.23;56.35;96529.59;5090713;28;20208;-73
2021/07/27 05:33:52;;;;;;;5.13;4.53;;;;;;;23.43;55.88;96531.69;5091461;28;20185;-69
2021/07/27 05:36:17;;;;;;;6.47;4.50;;;;;;;23.49;55.64;96518.34;5091190;28;20426;-69
2021/07/27 05:38:43;;;;;;;9.03;5.37;;;;;;;23.51;55.64;96522.38;5091148;28;20262;-71
2021/07/27 05:41:08;;;;;;;8.07;5.13;;;;;;;23.17;56.97;96526.03;5090731;28;20213;-72
2021/07/27 05:43:34;;;;;;;7.60;4.77;;;;;;;23.62;56.48;96520.63;5088325;28;20245;-69
2021/07/27 05:46:03;;;;;;;6.27;5.23;;;;;;;23.84;55.21;96522.41;5079484;28;20220;-70
2021/07/27 05:48:28;;;;;;;5.60;4.83;;;;;;;23.67;55.76;96507.31;5075397;28;20176;-70
2021/07/27 05:50:54;;;;;;;5.77;4.50;;;;;;;23.98;55.95;96510.28;5078917;28;20455;-71
2021/07/27 05:53:19;;;;;;;12.73;4.23;;;;;;;24.22;54.62;96502.69;5083905;28;20230;-70
2021/07/27 05:55:45;;;;;;;7.40;5.13;;;;;;;24.01;54.73;96511.63;5083778;28;20230;-71
2021/07/27 05:58:11;;;;;;;8.40;4.50;;;;;;;24.36;54.81;96505.72;5081195;28;20696;-70
2021/07/27 06:00:36;;;;;;;5.50;4.90;;;;;;;24.68;53.85;96494.13;5083044;28;20315;-72
2021/07/27 06:03:03;;;;;;;5.23;4.50;;;;;;;24.10;53.52;96503.94;5083415;28;20201;-71
2021/07/27 06:05:29;;;;;;;9.40;4.53;;;;;;;23.70;54.44;96506.00;5084993;28;20213;-71
2021/07/27 06:07:54;;;;;;;6.83;4.80;;;;;;;23.36;56.33;96511.56;5082572;28;20786;-71
2021/07/27 06:10:20;;;;;;;8.00;4.60;;;;;;;23.65;55.94;96509.44;5085464;28;20274;-71
2021/07/27 06:12:45;;;;;;;6.10;4.93;;;;;;;23.87;55.42;96521.91;5090492;28;20777;-70
2021/07/27 06:15:11;;;;;;;4.80;4.13;;;;;;;24.46;53.94;96507.66;5090214;28;20570;-71
2021/07/27 06:17:37;;;;;;;9.40;5.00;;;;;;;24.84;53.00;96512.97;5093163;28;20174;-71
2021/07/27 06:20:03;;;;;;;6.10;5.00;;;;;;;24.02;53.21;96518.59;5090454;28;20606;-71
2021/07/27 06:22:28;;;;;;;7.13;4.90;;;;;;;24.67;51.67;96516.63;5092949;28;20649;-70
2021/07/27 06:24:55;;;;;;;7.60;4.77;;;;;;;23.91;53.63;96515.81;5089306;28;20447;-72
2021/07/27 06:27:21;;;;;;;5.30;4.30;;;;;;;23.69;54.67;96520.41;5087119;28;20186;-71
2021/07/27 06:29:47;;;;;;;4.90;4.40;;;;;;;23.15;55.81;96528.16;5090453;28;20411;-71
2021/07/27 06:32:12;;;;;;;5.27;4.73;;;;;;;23.69;54.39;96525.78;5084539;28;21032;-70
2021/07/27 06:34:38;;;;;;;5.77;4.73;;;;;;;24.13;53.26;96524.84;5090510;28;20197;-71
2021/07/27 06:37:03;;;;;;;8.57;5.10;;;;;;;24.12;53.12;96526.72;5090288;28;20360;-71
2021/07/27 06:39:30;;;;;;;6.70;5.10;;;;;;;24.14;52.67;96532.59;5089123;28;20182;-71
2021/07/27 06:41:55;;;;;;;8.20;4.83;;;;;;;23.95;53.50;96523.31;5090228;28;20323;-70
2021/07/27 06:44:22;;;;;;;5.17;4.67;;;;;;;24.08;53.51;96518.38;5089616;28;21151;-71
2021/07/27 06:46:47;;;;;;;11.00;5.27;;;;;;;23.70;54.39;96528.19;5092684;28;20254;-72
2021/07/27 06:49:15;;;;;;;10.67;5.60;;;;;;;23.17;55.71;96530.56;5095894;28;20787;-71
2021/07/27 06:51:41;;;;;;;8.83;4.80;;;;;;;22.92;55.85;96539.88;5094245;28;20190;-72
2021/07/27 06:54:08;;;;;;;6.17;5.13;;;;;;;23.16;55.22;96540.44;5094399;28;20516;-71
2021/07/27 06:56:37;;;;;;;6.03;5.43;;;;;;;23.00;56.19;96533.28;5093739;28;20408;-70
2021/07/27 06:59:03;;;;;;;5.30;4.80;;;;;;;23.48;54.78;96546.97;5091836;28;20930;-70
2021/07/27 07:01:28;;;;;;;7.37;4.97;;;;;;;23.56;54.79;96543.03;5093997;28;20436;-71
2021/07/27 07:03:54;;;;;;;5.57;4.90;;;;;;;23.98;52.85;96547.72;5093659;28;20509;-70
2021/07/27 07:06:19;;;;;;;7.20;4.87;;;;;;;24.66;51.73;96539.13;5093632;28;20186;-75
2021/07/27 07:08:47;;;;;;;6.53;4.70;;;;;;;25.07;50.53;96540.41;5093657;28;20265;-73
2021/07/27 07:11:13;;;;;;;7.20;4.73;;;;;;;25.51;49.22;96539.25;5093154;28;20288;-70
2021/07/27 07:13:38;;;;;;;5.40;4.70;;;;;;;25.63;48.60;96547.03;5092918;28;20511;-72
2021/07/27 07:16:11;;;;;;;6.03;5.43;;;;;;;25.56;48.40;96549.97;5093300;28;20636;-72
2021/07/27 07:18:37;;;;;;;4.70;4.30;;;;;;;25.59;48.37;96544.88;5093656;28;20205;-71
2021/07/27 07:21:04;;;;;;;4.50;3.90;;;;;;;25.98;47.83;96551.66;5092996;28;20892;-70
2021/07/27 07:23:30;;;;;;;5.00;4.60;;;;;;;26.03;47.82;96553.53;5091938;28;20536;-71
2021/07/27 07:25:55;;;;;;;6.57;4.47;;;;;;;26.43;45.84;96545.72;5092213;28;20455;-71
2021/07/27 07:28:21;;;;;;;6.77;5.43;;;;;;;26.44;45.98;96548.16;5092127;28;20220;-70
2021/07/27 07:30:47;;;;;;;5.47;4.83;;;;;;;26.67;46.04;96548.66;5092378;28;20719;-71
2021/07/27 07:33:13;;;;;;;6.53;5.37;;;;;;;26.27;46.54;96547.63;5095653;28;20181;-71
2021/07/27 07:35:38;;;;;;;9.87;4.53;;;;;;;26.34;46.37;96558.91;5093123;28;20940;-72
2021/07/27 07:38:04;;;;;;;6.97;4.70;;;;;;;25.47;47.87;96557.72;5093053;28;20189;-71
2021/07/27 07:40:31;;;;;;;5.77;4.30;;;;;;;24.98;48.88;96561.53;5092788;28;20660;-72
2021/07/27 07:43:00;;;;;;;5.67;5.10;;;;;;;25.28;48.37;96560.88;5093003;28;20170;-69
2021/07/27 07:45:27;;;;;;;5.60;4.70;;;;;;;25.75;47.95;96552.94;5093098;28;20463;-72
2021/07/27 07:47:53;;;;;;;5.77;4.50;;;;;;;25.82;47.72;96553.50;5093980;28;20497;-71
2021/07/27 07:50:19;;;;;;;5.20;4.70;;;;;;;24.99;49.10;96555.91;5094704;28;20424;-73
2021/07/27 07:52:45;;;;;;;7.10;4.97;;;;;;;25.58;48.05;96556.66;5095525;28;20184;-72
2021/07/27 07:55:11;;;;;;;6.77;4.07;;;;;;;25.22;47.99;96553.84;5094783;28;20411;-72
2021/07/27 07:57:38;;;;;;;9.53;4.10;;;;;;;25.84;46.75;96555.91;5092785;28;20174;-72
2021/07/27 08:00:05;;;;;;;7.10;4.60;;;;;;;26.31;45.43;96549.50;5095695;28;20462;-71
2021/07/27 08:02:31;;;;;;;4.93;4.40;;;;;;;26.89;44.20;96555.59;5094537;28;20833;-71
2021/07/27 08:04:56;;;;;;;6.67;5.27;;;;;;;26.74;44.37;96562.59;5093115;28;20448;-71
2021/07/27 08:07:22;;;;;;;6.93;4.50;;;;;;;27.00;43.73;96559.88;5093095;28;20209;-72
2021/07/27 08:09:48;;;;;;;5.53;4.50;;;;;;;27.16;43.79;96554.44;5094309;28;20562;-71
2021/07/27 08:12:14;;;;;;;4.83;4.43;;;;;;;27.18;43.55;96560.34;5093358;28;20450;-71
2021/07/27 08:14:39;;;;;;;6.70;4.90;;;;;;;26.47;44.86;96558.34;5092778;28;20174;-71
2021/07/27 08:17:05;;;;;;;4.77;4.30;;;;;;;26.65;43.35;96548.13;5092771;28;20558;-71
2021/07/27 08:19:31;;;;;;;10.00;6.10;;;;;;;26.30;43.64;96555.16;5092921;28;20189;-73
2021/07/27 08:21:57;;;;;;;5.03;4.60;;;;;;;26.99;41.38;96558.25;5100659;28;20197;-72
2021/07/27 08:24:25;;;;;;;10.43;5.73;;;;;;;26.79;42.94;96557.25;5092201;28;20696;-72
2021/07/27 08:26:51;;;;;;;9.37;5.50;;;;;;;26.39;43.58;96558.13;5090357;28;20416;-71
2021/07/27 08:29:17;;;;;;;7.67;5.57;;;;;;;26.66;43.36;96555.09;5092692;28;20770;-70
2021/07/27 08:31:44;;;;;;;5.37;4.87;;;;;;;26.37;43.71;96558.38;5092264;28;20455;-72
2021/07/27 08:34:16;;;;;;;6.67;4.83;;;;;;;26.35;43.86;96555.13;5092134;28;20225;-73
2021/07/27 08:36:42;;;;;;;4.90;4.43;;;;;;;26.27;43.24;96555.69;5091067;28;20428;-73
2021/07/27 08:39:08;;;;;;;22.63;9.10;;;;;;;25.83;44.02;96565.88;5091526;28;20443;-73
2021/07/27 08:41:33;;;;;;;9.53;5.53;;;;;;;25.91;43.74;96559.13;5094856;28;20531;-71
2021/07/27 08:43:59;;;;;;;10.93;6.13;;;;;;;26.53;42.64;96564.50;5090328;28;20692;-73
2021/07/27 08:46:25;;;;;;;10.03;7.17;;;;;;;25.89;44.40;96570.16;5090392;28;20212;-72
2021/07/27 08:48:51;;;;;;;5.30;4.80;;;;;;;25.98;43.04;96561.56;5092086;28;20173;-71
2021/07/27 08:51:21;;;;;;;6.63;6.03;;;;;;;26.23;42.45;96568.84;5090136;28;20531;-71
2021/07/27 08:53:46;;;;;;;5.33;4.50;;;;;;;27.29;41.15;96565.41;5091617;28;20204;-72
2021/07/27 08:56:12;;;;;;;7.23;4.87;;;;;;;27.53;39.71;96561.28;5090818;28;20942;-70
2021/07/27 08:58:37;;;;;;;7.50;5.10;;;;;;;27.21;39.89;96573.25;5090165;28;20272;-71
2021/07/27 09:01:03;;;;;;;7.70;5.60;;;;;;;27.42;40.10;96571.25;5091540;28;20208;-71
2021/07/27 09:03:28;;;;;;;6.53;5.70;;;;;;;27.89;38.90;96569.94;5091575;28;20865;-71
2021/07/27 09:06:04;;;;;;;14.03;6.00;;;;;;;27.88;39.22;96570.22;5091712;28;20221;-72
2021/07/27 09:08:30;;;;;;;9.23;6.10;;;;;;;27.50;39.38;96559.16;5091124;28;20461;-72
2021/07/27 09:11:00;;;;;;;17.03;8.00;;;;;;;26.28;41.34;96560.00;5091137;28;20435;-72
2021/07/27 09:13:32;;;;;;;12.90;7.03;;;;;;;26.69;nan;96562.63;5090936;28;20426;-72
2021/07/27 09:15:58;;;;;;;4.80;4.30;;;;;;;27.01;39.29;96561.47;5091222;28;20441;-73
2021/07/27 09:18:23;;;;;;;7.13;5.10;;;;;;;26.92;40.76;96557.75;5091126;28;20424;-72
2021/07/27 09:20:57;;;;;;;5.57;4.83;;;;;;;27.64;39.09;96559.34;5090904;28;21232;-73
2021/07/27 09:23:27;;;;;;;6.10;5.20;;;;;;;28.00;38.67;96554.50;5090942;28;20220;-73
2021/07/27 09:25:55;;;;;;;31.67;12.23;;;;;;;26.88;39.88;96546.75;5089902;28;20456;-71
2021/07/27 09:28:22;;;;;;;21.57;9.83;;;;;;;26.66;40.92;96557.78;5090605;28;22199;-72
2021/07/27 09:30:49;;;;;;;10.97;6.53;;;;;;;26.68;41.47;96550.28;5088615;28;20440;-72
2021/07/27 09:33:16;;;;;;;7.20;5.20;;;;;;;27.03;41.14;96553.94;5081994;28;20427;-72
2021/07/27 09:35:44;;;;;;;14.57;5.83;;;;;;;27.37;40.97;96555.16;5086276;28;20781;-73
2021/07/27 09:38:14;;;;;;;15.30;7.60;;;;;;;27.17;40.32;96548.00;5086477;28;20433;-73
2021/07/27 09:40:58;;;;;;;8.07;4.83;;;;;;;28.13;38.14;96546.91;5076098;28;20542;-73
2021/07/27 09:43:25;;;;;;;6.33;4.80;;;;;;;28.70;37.63;96546.38;5072914;28;20427;-72
2021/07/27 09:45:52;;;;;;;7.00;5.10;;;;;;;28.15;39.11;96550.13;5090950;28;20459;-72
2021/07/27 09:48:19;;;;;;;6.60;5.20;;;;;;;28.12;39.53;96554.19;5091627;28;20472;-73
2021/07/27 09:50:49;;;;;;;6.23;5.60;;;;;;;28.31;39.35;96548.09;5090984;28;20452;-73
2021/07/27 09:53:15;;;;;;;5.37;4.87;;;;;;;28.56;38.93;96557.03;5091030;28;20873;-72
2021/07/27 09:55:41;;;;;;;5.33;4.83;;;;;;;28.62;38.77;96548.59;5089743;28;20468;-73
2021/07/27 09:58:07;;;;;;;4.77;4.33;;;;;;;28.98;37.77;96536.66;5089886;28;20416;-72
2021/07/27 10:00:42;;;;;;;5.47;4.97;;;;;;;28.31;38.29;96553.47;5091237;28;20523;-72
2021/07/27 10:03:11;;;;;;;6.57;4.87;;;;;;;27.82;38.56;96552.50;5072397;28;20419;-71
2021/07/27 10:05:37;;;;;;;5.50;4.60;;;;;;;28.76;38.01;96539.88;5085719;28;20457;-72
2021/07/27 10:08:02;;;;;;;4.40;4.00;;;;;;;28.73;36.29;96535.06;5089875;28;20918;-72
2021/07/27 10:10:39;;;;;;;4.73;3.93;;;;;;;28.85;34.82;96530.09;5091639;28;20188;-71
2021/07/27 10:13:06;;;;;;;7.87;5.10;;;;;;;28.78;35.21;96540.38;5090914;28;20185;-72
2021/07/27 10:15:41;;;;;;;8.20;5.03;;;;;;;29.58;33.52;96540.75;5090889;28;20783;-72
2021/07/27 10:18:06;;;;;;;5.30;4.40;;;;;;;29.39;34.53;96538.06;5091327;28;20415;-72
2021/07/27 10:20:32;;;;;;;5.10;4.70;;;;;;;30.06;34.25;96539.00;5089407;28;20431;-72
2021/07/27 10:22:58;;;;;;;12.60;4.40;;;;;;;30.46;33.49;96529.41;5085343;28;20193;-71
2021/07/27 10:25:25;;;;;;;5.97;4.07;;;;;;;30.53;33.97;96537.13;5094594;28;20634;-72
2021/07/27 10:27:54;;;;;;;4.43;4.03;;;;;;;31.07;31.41;96540.19;5092493;28;20173;-73
2021/07/27 10:30:36;;;;;;;6.93;5.30;;;;;;;31.14;30.39;96544.38;5094326;28;20964;-72
2021/07/27 10:33:02;;;;;;;5.17;4.67;;;;;;;31.32;31.76;96543.47;5094352;28;20581;-72
2021/07/27 10:35:36;;;;;;;6.50;4.00;;;;;;;30.51;33.29;96544.72;5092692;28;20400;-74
2021/07/27 10:38:13;;;;;;;4.60;4.20;;;;;;;30.34;32.64;96537.19;5094161;28;20442;-72
2021/07/27 10:40:42;;;;;;;9.47;4.43;;;;;;;30.29;33.68;96539.97;5094851;28;20432;-71
2021/07/27 10:43:09;;;;;;;8.97;3.93;;;;;;;30.78;32.19;96535.06;5097354;28;20427;-72
2021/07/27 10:45:35;;;;;;;6.10;5.40;;;;;;;31.13;32.07;96530.06;5094702;28;20474;-73
2021/07/27 10:48:01;;;;;;;4.30;4.00;;;;;;;30.95;32.83;96529.84;5093494;28;20510;-72
2021/07/27 10:50:29;;;;;;;5.37;4.23;;;;;;;29.70;34.07;96543.81;5094667;28;20934;-72
2021/07/27 10:53:07;;;;;;;6.93;5.10;;;;;;;30.11;33.53;96531.63;5076184;28;20265;-71
2021/07/27 10:55:33;;;;;;;5.87;4.80;;;;;;;30.50;32.11;96530.41;5085982;28;20876;-73
2021/07/27 10:58:02;;;;;;;4.60;3.83;;;;;;;30.00;32.72;96535.56;5089992;28;20451;-72
2021/07/27 11:00:35;;;;;;;5.17;4.07;;;;;;;29.71;32.64;96529.25;5085955;28;20177;-73
2021/07/27 11:03:02;;;;;;;4.77;3.33;;;;;;;31.05;31.00;96528.84;5083222;28;20453;-73
2021/07/27 11:05:28;;;;;;;7.73;5.27;;;;;;;31.34;30.98;96514.22;5090000;28;20989;-74
2021/07/27 11:07:54;;;;;;;4.97;3.80;;;;;;;31.13;31.74;96518.47;5087770;28;20423;-73
2021/07/27 11:10:21;;;;;;;8.70;4.07;;;;;;;32.05;30.93;96520.19;5093622;28;20423;-73
2021/07/27 11:12:47;;;;;;;4.30;3.90;;;;;;;32.51;29.54;96512.81;5093541;28;20428;-74
2021/07/27 11:15:23;;;;;;;4.67;4.20;;;;;;;32.32;29.09;96509.22;5092812;28;20420;-72
2021/07/27 11:17:51;;;;;;;3.40;3.10;;;;;;;32.34;28.84;96513.53;5093461;28;20420;-73
2021/07/27 11:20:22;;;;;;;5.10;3.67;;;;;;;31.55;29.60;96516.44;5093368;28;20427;-73
2021/07/27 11:22:53;;;;;;;4.80;3.33;;;;;;;32.12;29.52;96515.16;5092284;28;20434;-72
2021/07/27 11:25:20;;;;;;;4.17;3.87;;;;;;;32.17;29.72;96518.53;5091831;28;20455;-73
2021/07/27 11:27:46;;;;;;;4.10;3.70;;;;;;;32.36;28.70;96505.91;5091203;28;20853;-73
2021/07/27 11:30:13;;;;;;;3.90;3.60;;;;;;;32.40;28.63;96498.72;5093339;28;20945;-72
2021/07/27 11:32:43;;;;;;;5.03;3.93;;;;;;;31.84;30.03;96497.13;5091669;28;20411;-74
2021/07/27 11:35:10;;;;;;;9.10;4.20;;;;;;;32.13;29.58;96497.78;5094748;28;20408;-72
2021/07/27 11:37:36;;;;;;;3.70;3.40;;;;;;;31.99;28.95;96487.81;5098142;28;20426;-73
2021/07/27 11:40:02;;;;;;;3.53;3.13;;;;;;;30.60;30.51;96488.09;5098303;27;20424;-72
2021/07/27 11:42:33;;;;;;;3.80;3.43;;;;;;;29.77;32.22;96489.47;5094463;28;20204;-72
2021/07/27 11:45:02;;;;;;;4.40;3.40;;;;;;;30.82;31.37;96473.06;5093075;28;20486;-74
2021/07/27 11:47:54;;;;;;;4.83;3.50;;;;;;;31.00;31.62;96472.13;5086996;28;20476;-73
2021/07/27 11:50:28;;;;;;;5.90;4.30;;;;;;;30.68;31.96;96463.06;5081489;28;20428;-73